Time;durP1;ratioP1;P1;durP2;ratioP2;P2;SDS_P1;SDS_P2;PMS_P1;PMS_P2;Temp;Humidity;BMP_temperature;BMP_pressure;BME280_temperature;BME280_humidity;BME280_pressure;Samples;Min_cycle;Max_cycle;Signal;HPM_P1;HPM_P2
2024/01/20 00:02:45;;;;;;;7.20;3.58;;;;;;;;;;8210817;28;20412;-62
2024/01/20 00:06:45;;;;;;;4.22;2.83;;;;;;;;;;8218401;28;20044;-62
2024/01/20 00:10:46;;;;;;;7.45;3.17;;;;;;;;;;8212074;28;20018;-62
2024/01/20 00:14:46;;;;;;;7.60;3.30;;;;;;;;;;8211756;28;20025;-61
2024/01/20 00:18:46;;;;;;;5.63;2.60;;;;;;;;;;8207507;28;20034;-61
2024/01/20 00:22:48;;;;;;;6.35;3.42;;;;;;;;;;8212688;28;20109;-62
2024/01/20 00:26:48;;;;;;;3.67;2.50;;;;;;;;;;8214241;28;20054;-62
2024/01/20 00:30:49;;;;;;;3.35;2.42;;;;;;;;;;8212847;28;20595;-62
2024/01/20 00:34:49;;;;;;;6.20;3.17;;;;;;;;;;8213085;28;20383;-62
2024/01/20 00:38:49;;;;;;;6.63;3.88;;;;;;;;;;8213953;28;20034;-62
2024/01/20 00:42:49;;;;;;;8.10;3.55;;;;;;;;;;8211986;28;20038;-62
2024/01/20 00:46:49;;;;;;;7.03;4.15;;;;;;;;;;8209898;28;20046;-63
2024/01/20 00:50:50;;;;;;;10.70;4.45;;;;;;;;;;8213154;28;20832;-63
2024/01/20 00:54:51;;;;;;;6.43;4.43;;;;;;;;;;8213508;28;20033;-63
2024/01/20 00:58:51;;;;;;;8.85;4.32;;;;;;;;;;8214425;28;20369;-63
2024/01/20 01:02:51;;;;;;;6.88;3.70;;;;;;;;;;8213785;28;20481;-63
2024/01/20 01:06:52;;;;;;;8.30;3.97;;;;;;;;;;8213833;28;20596;-62
2024/01/20 01:10:54;;;;;;;6.60;4.00;;;;;;;;;;8212203;28;21942;-63
2024/01/20 01:14:54;;;;;;;5.63;3.58;;;;;;;;;;8215887;28;20937;-63
2024/01/20 01:18:55;;;;;;;5.80;3.00;;;;;;;;;;8210612;28;20766;-63
2024/01/20 01:22:55;;;;;;;5.57;2.97;;;;;;;;;;8213802;28;20628;-63
2024/01/20 01:26:55;;;;;;;6.32;2.92;;;;;;;;;;8209661;28;20030;-63
2024/01/20 01:30:55;;;;;;;7.45;3.42;;;;;;;;;;8209316;28;20437;-64
2024/01/20 01:34:55;;;;;;;4.18;2.75;;;;;;;;;;8211136;28;21710;-63
2024/01/20 01:38:55;;;;;;;6.22;2.60;;;;;;;;;;8209347;28;20068;-63
2024/01/20 01:42:57;;;;;;;4.50;2.75;;;;;;;;;;8213878;28;20882;-63
2024/01/20 01:46:57;;;;;;;5.57;2.55;;;;;;;;;;8217211;28;20046;-63
2024/01/20 01:50:57;;;;;;;4.13;2.92;;;;;;;;;;8219296;28;20361;-63
2024/01/20 01:54:58;;;;;;;5.32;2.78;;;;;;;;;;8217468;28;20029;-62
2024/01/20 01:58:58;;;;;;;4.85;3.00;;;;;;;;;;8218051;28;20057;-62
2024/01/20 02:02:58;;;;;;;3.75;2.95;;;;;;;;;;8217676;28;20046;-62
2024/01/20 02:06:59;;;;;;;5.18;3.50;;;;;;;;;;8217702;28;20036;-62
2024/01/20 02:10:59;;;;;;;7.90;4.20;;;;;;;;;;8217232;28;20022;-62
2024/01/20 02:14:59;;;;;;;5.20;3.35;;;;;;;;;;8222169;28;20883;-63
2024/01/20 02:19:05;;;;;;;6.55;4.00;;;;;;;;;;8218701;28;20041;-63
2024/01/20 02:23:05;;;;;;;6.03;3.60;;;;;;;;;;8219889;28;20292;-63
2024/01/20 02:27:06;;;;;;;5.57;4.10;;;;;;;;;;8218519;28;20027;-61
2024/01/20 02:31:06;;;;;;;5.05;3.50;;;;;;;;;;8214883;28;20091;-61
2024/01/20 02:35:06;;;;;;;3.65;3.03;;;;;;;;;;8216538;28;20022;-61
2024/01/20 02:39:06;;;;;;;5.72;3.58;;;;;;;;;;8218191;28;20116;-61
2024/01/20 02:43:07;;;;;;;8.48;3.50;;;;;;;;;;8217250;28;20115;-61
2024/01/20 02:47:07;;;;;;;5.78;3.30;;;;;;;;;;8214933;28;20041;-62
2024/01/20 02:51:07;;;;;;;6.10;3.50;;;;;;;;;;8221362;28;20033;-62
2024/01/20 02:55:08;;;;;;;6.00;3.75;;;;;;;;;;8217778;28;20037;-62
2024/01/20 02:59:08;;;;;;;4.35;2.95;;;;;;;;;;8218229;28;20499;-62
2024/01/20 03:03:08;;;;;;;6.93;3.83;;;;;;;;;;8214071;28;20293;-62
2024/01/20 03:07:10;;;;;;;4.38;3.20;;;;;;;;;;8220873;28;20463;-61
2024/01/20 03:11:10;;;;;;;4.18;3.28;;;;;;;;;;8216064;28;20018;-61
2024/01/20 03:15:10;;;;;;;7.18;3.70;;;;;;;;;;8218021;28;20348;-61
2024/01/20 03:19:10;;;;;;;9.50;4.00;;;;;;;;;;8212755;28;20512;-61
2024/01/20 03:23:10;;;;;;;5.13;3.28;;;;;;;;;;8215260;28;20388;-61
2024/01/20 03:27:11;;;;;;;6.05;3.65;;;;;;;;;;8217057;28;20030;-61
2024/01/20 03:31:11;;;;;;;6.20;3.58;;;;;;;;;;8214175;28;20672;-61
2024/01/20 03:35:11;;;;;;;5.53;3.17;;;;;;;;;;8214833;28;20026;-63
2024/01/20 03:39:11;;;;;;;9.57;4.40;;;;;;;;;;8215012;28;20022;-62
2024/01/20 03:43:11;;;;;;;7.68;3.97;;;;;;;;;;8214973;28;20098;-62
2024/01/20 03:47:12;;;;;;;5.72;3.63;;;;;;;;;;8218048;28;20183;-62
2024/01/20 03:51:12;;;;;;;6.40;3.88;;;;;;;;;;8217900;28;20010;-62
2024/01/20 03:55:12;;;;;;;6.45;2.92;;;;;;;;;;8216477;28;20022;-63
2024/01/20 03:59:12;;;;;;;5.32;2.65;;;;;;;;;;8213610;28;20034;-63
2024/01/20 04:03:12;;;;;;;4.78;2.40;;;;;;;;;;8215916;28;20117;-63
2024/01/20 04:07:12;;;;;;;6.82;2.40;;;;;;;;;;8215728;28;20030;-63
2024/01/20 04:11:13;;;;;;;4.78;2.30;;;;;;;;;;8213657;28;20022;-63
2024/01/20 04:15:13;;;;;;;3.22;2.22;;;;;;;;;;8214406;28;20445;-63
2024/01/20 04:19:13;;;;;;;2.95;2.00;;;;;;;;;;8213842;28;20023;-63
2024/01/20 04:23:13;;;;;;;5.72;2.40;;;;;;;;;;8215819;28;20026;-63
2024/01/20 04:27:14;;;;;;;5.13;2.80;;;;;;;;;;8218561;28;20018;-63
2024/01/20 04:31:14;;;;;;;10.40;4.25;;;;;;;;;;8220270;28;20773;-63
2024/01/20 04:35:14;;;;;;;9.00;3.22;;;;;;;;;;8214771;28;20444;-63
2024/01/20 04:39:14;;;;;;;4.03;2.80;;;;;;;;;;8215407;28;20427;-62
2024/01/20 04:43:14;;;;;;;5.38;3.40;;;;;;;;;;8216484;28;20026;-63
2024/01/20 04:47:14;;;;;;;7.93;4.10;;;;;;;;;;8212716;28;20479;-62
2024/01/20 04:51:15;;;;;;;8.52;4.55;;;;;;;;;;8214468;28;20030;-62
2024/01/20 04:55:15;;;;;;;5.63;3.63;;;;;;;;;;8212871;28;20109;-62
2024/01/20 04:59:16;;;;;;;5.53;3.28;;;;;;;;;;8213912;28;20479;-62
2024/01/20 05:03:16;;;;;;;5.47;2.90;;;;;;;;;;8212716;28;20757;-62
2024/01/20 05:07:16;;;;;;;5.07;3.25;;;;;;;;;;8211656;28;20047;-61
2024/01/20 05:11:16;;;;;;;9.95;3.55;;;;;;;;;;8216617;28;20049;-61
2024/01/20 05:15:17;;;;;;;3.50;3.00;;;;;;;;;;8215139;28;20022;-61
2024/01/20 05:19:17;;;;;;;5.07;3.10;;;;;;;;;;8217247;28;20045;-61
2024/01/20 05:23:18;;;;;;;6.13;3.92;;;;;;;;;;8221409;28;20455;-61
2024/01/20 05:27:18;;;;;;;5.30;3.83;;;;;;;;;;8222754;28;20117;-63
2024/01/20 05:31:20;;;;;;;6.72;3.85;;;;;;;;;;8220388;28;20563;-63
2024/01/20 05:35:20;;;;;;;4.88;3.55;;;;;;;;;;8223363;28;20031;-63
2024/01/20 05:39:20;;;;;;;4.43;3.15;;;;;;;;;;8220860;28;20022;-63
2024/01/20 05:43:21;;;;;;;6.22;3.50;;;;;;;;;;8219271;28;20585;-63
2024/01/20 05:47:21;;;;;;;7.35;3.92;;;;;;;;;;8187701;28;20391;-62
2024/01/20 05:51:21;;;;;;;6.78;4.20;;;;;;;;;;8212639;28;20322;-62
2024/01/20 05:55:21;;;;;;;10.07;4.80;;;;;;;;;;8219230;28;20045;-62
2024/01/20 05:59:21;;;;;;;7.40;4.35;;;;;;;;;;8218733;28;20655;-63
2024/01/20 06:03:22;;;;;;;5.53;3.97;;;;;;;;;;8219461;28;20067;-64
2024/01/20 06:07:23;;;;;;;6.15;3.92;;;;;;;;;;8214053;28;20029;-63
2024/01/20 06:11:24;;;;;;;6.95;4.00;;;;;;;;;;8218401;28;20053;-64
2024/01/20 06:15:24;;;;;;;4.53;3.05;;;;;;;;;;8215896;28;20159;-63
2024/01/20 06:19:24;;;;;;;4.63;2.45;;;;;;;;;;8215109;28;20030;-62
2024/01/20 06:23:25;;;;;;;3.40;2.13;;;;;;;;;;8215664;28;20457;-63
2024/01/20 06:27:25;;;;;;;3.45;2.03;;;;;;;;;;8219821;28;20022;-63
2024/01/20 06:31:26;;;;;;;3.38;2.58;;;;;;;;;;8213863;28;20522;-63
2024/01/20 06:35:26;;;;;;;3.03;2.42;;;;;;;;;;8216360;28;20117;-62
2024/01/20 06:39:26;;;;;;;4.55;2.53;;;;;;;;;;8214584;28;20125;-64
2024/01/20 06:43:26;;;;;;;5.05;3.40;;;;;;;;;;8215985;28;20652;-64
2024/01/20 06:47:27;;;;;;;13.88;6.75;;;;;;;;;;8215716;28;20088;-63
2024/01/20 06:51:27;;;;;;;16.35;7.72;;;;;;;;;;8213858;28;20412;-63
2024/01/20 06:55:27;;;;;;;20.52;9.35;;;;;;;;;;8214585;28;20627;-63
2024/01/20 06:59:27;;;;;;;19.23;7.38;;;;;;;;;;8218363;28;20029;-63
2024/01/20 07:03:27;;;;;;;14.48;7.93;;;;;;;;;;8216406;28;20056;-63
2024/01/20 07:07:28;;;;;;;9.95;4.47;;;;;;;;;;8215412;28;20455;-63
2024/01/20 07:11:28;;;;;;;6.15;3.45;;;;;;;;;;8217546;28;20465;-64
2024/01/20 07:15:28;;;;;;;9.48;3.15;;;;;;;;;;8215566;28;20035;-64
2024/01/20 07:19:29;;;;;;;4.68;2.78;;;;;;;;;;8213921;28;20473;-63
2024/01/20 07:23:30;;;;;;;5.05;3.10;;;;;;;;;;8221250;28;20049;-64
2024/01/20 07:27:30;;;;;;;5.85;3.60;;;;;;;;;;8217651;28;20033;-62
2024/01/20 07:31:30;;;;;;;5.80;3.88;;;;;;;;;;8206715;28;20069;-62
2024/01/20 07:35:30;;;;;;;7.22;3.85;;;;;;;;;;8215467;28;20388;-62
2024/01/20 07:39:31;;;;;;;8.47;4.70;;;;;;;;;;8215982;28;20021;-62
2024/01/20 07:43:31;;;;;;;7.53;4.60;;;;;;;;;;8213658;28;20289;-63
2024/01/20 07:47:31;;;;;;;7.82;4.68;;;;;;;;;;8210187;28;20155;-62
2024/01/20 07:51:31;;;;;;;9.40;3.15;;;;;;;;;;8211235;28;20036;-61
2024/01/20 07:55:31;;;;;;;2.90;2.15;;;;;;;;;;8226651;28;20456;-62
2024/01/20 07:59:32;;;;;;;13.70;6.72;;;;;;;;;;8209145;28;20100;-62
2024/01/20 08:03:32;;;;;;;11.98;7.43;;;;;;;;;;8209021;28;20054;-61
2024/01/20 08:07:32;;;;;;;9.70;6.40;;;;;;;;;;8210684;28;20495;-64
2024/01/20 08:11:33;;;;;;;8.15;5.40;;;;;;;;;;8210762;28;20117;-63
2024/01/20 08:15:33;;;;;;;7.73;3.90;;;;;;;;;;8211281;28;20416;-63
2024/01/20 08:19:33;;;;;;;7.28;4.22;;;;;;;;;;8209013;28;21287;-63
2024/01/20 08:23:33;;;;;;;7.22;5.05;;;;;;;;;;8214821;28;20029;-64
2024/01/20 08:27:33;;;;;;;6.68;4.45;;;;;;;;;;8210902;28;20033;-62
2024/01/20 08:31:34;;;;;;;4.97;3.60;;;;;;;;;;8224682;28;20061;-63
2024/01/20 08:35:34;;;;;;;7.63;4.65;;;;;;;;;;8208853;28;20663;-62
2024/01/20 08:39:34;;;;;;;11.50;5.45;;;;;;;;;;8207639;28;20377;-63
2024/01/20 08:43:44;;;;;;;8.40;5.85;;;;;;;;;;8209021;28;20022;-63
2024/01/20 08:47:44;;;;;;;9.23;5.53;;;;;;;;;;8206007;28;20181;-62
2024/01/20 08:51:44;;;;;;;14.48;8.13;;;;;;;;;;8209310;28;20529;-62
2024/01/20 08:55:45;;;;;;;11.82;6.43;;;;;;;;;;8209883;28;20160;-62
2024/01/20 08:59:45;;;;;;;9.52;5.68;;;;;;;;;;8213039;28;20519;-62
2024/01/20 09:03:45;;;;;;;11.82;6.95;;;;;;;;;;8213177;28;20195;-62
2024/01/20 09:07:46;;;;;;;12.15;6.93;;;;;;;;;;8214005;28;20033;-62
2024/01/20 09:11:46;;;;;;;13.13;7.82;;;;;;;;;;8210910;28;20041;-63
2024/01/20 09:15:46;;;;;;;12.02;7.43;;;;;;;;;;8211581;28;20061;-62
2024/01/20 09:19:46;;;;;;;15.27;8.32;;;;;;;;;;8204415;28;20319;-61
2024/01/20 09:23:46;;;;;;;15.40;8.48;;;;;;;;;;8204429;28;20034;-62
2024/01/20 09:27:47;;;;;;;15.43;8.68;;;;;;;;;;8206023;28;20563;-62
2024/01/20 09:31:47;;;;;;;22.13;12.75;;;;;;;;;;8199253;28;20644;-63
2024/01/20 09:35:47;;;;;;;15.93;9.13;;;;;;;;;;8205336;28;20555;-63
2024/01/20 09:39:47;;;;;;;16.97;9.27;;;;;;;;;;8204350;28;20408;-63
2024/01/20 09:43:48;;;;;;;20.45;10.80;;;;;;;;;;8202422;28;20486;-63
2024/01/20 09:47:49;;;;;;;17.95;9.82;;;;;;;;;;8204050;28;20042;-61
2024/01/20 09:51:51;;;;;;;16.05;8.60;;;;;;;;;;8203150;28;20104;-61
2024/01/20 09:55:51;;;;;;;17.13;8.93;;;;;;;;;;8204466;28;20026;-61
2024/01/20 09:59:52;;;;;;;17.80;8.65;;;;;;;;;;8207003;28;21073;-61
2024/01/20 10:03:53;;;;;;;15.68;9.45;;;;;;;;;;8210455;28;20172;-62
2024/01/20 10:07:54;;;;;;;19.30;9.27;;;;;;;;;;8210198;28;20499;-62
2024/01/20 10:11:55;;;;;;;17.00;9.18;;;;;;;;;;8208300;28;20909;-62
2024/01/20 10:15:56;;;;;;;13.38;7.35;;;;;;;;;;8207123;28;20748;-62
2024/01/20 10:19:56;;;;;;;14.63;8.05;;;;;;;;;;8211677;28;20739;-62
2024/01/20 10:23:58;;;;;;;12.73;7.55;;;;;;;;;;8210753;28;20575;-62
2024/01/20 10:27:58;;;;;;;13.60;6.88;;;;;;;;;;8214282;28;20018;-61
2024/01/20 10:31:59;;;;;;;14.43;8.23;;;;;;;;;;8210084;28;20037;-61
2024/01/20 10:36:02;;;;;;;13.00;7.22;;;;;;;;;;8209684;28;20065;-61
2024/01/20 10:40:03;;;;;;;19.23;10.10;;;;;;;;;;8209828;28;20027;-61
2024/01/20 10:44:04;;;;;;;18.80;9.45;;;;;;;;;;8209872;28;20471;-61
2024/01/20 10:48:10;;;;;;;9.48;6.65;;;;;;;;;;8205239;28;20046;-61
2024/01/20 10:52:11;;;;;;;13.88;7.78;;;;;;;;;;8212294;28;20037;-61
2024/01/20 10:56:11;;;;;;;30.10;15.60;;;;;;;;;;8210077;28;20029;-61
2024/01/20 11:00:12;;;;;;;21.25;11.30;;;;;;;;;;8208695;28;20029;-63
2024/01/20 11:04:19;;;;;;;21.25;11.27;;;;;;;;;;8209926;28;20026;-62
2024/01/20 11:08:23;;;;;;;21.83;12.35;;;;;;;;;;8209457;28;20400;-62
2024/01/20 11:12:27;;;;;;;24.67;13.43;;;;;;;;;;8209263;28;20266;-62
2024/01/20 11:16:36;;;;;;;26.70;12.98;;;;;;;;;;8203622;28;20042;-62
2024/01/20 11:20:37;;;;;;;23.80;12.02;;;;;;;;;;8212175;28;20045;-61
2024/01/20 11:24:38;;;;;;;28.38;14.20;;;;;;;;;;8209704;28;20502;-62
2024/01/20 11:28:42;;;;;;;29.33;14.77;;;;;;;;;;8206517;28;20370;-62
2024/01/20 11:32:43;;;;;;;53.03;21.50;;;;;;;;;;8209356;28;20117;-62
2024/01/20 11:36:43;;;;;;;28.42;14.57;;;;;;;;;;8205432;28;20626;-62
2024/01/20 11:40:44;;;;;;;25.50;12.98;;;;;;;;;;8207184;28;20030;-61
2024/01/20 11:44:44;;;;;;;27.20;13.05;;;;;;;;;;8204491;28;20230;-62
2024/01/20 11:48:46;;;;;;;25.50;13.05;;;;;;;;;;8204908;28;20526;-62
2024/01/20 11:52:47;;;;;;;22.15;11.65;;;;;;;;;;8207493;28;20030;-62
2024/01/20 11:56:55;;;;;;;20.45;10.35;;;;;;;;;;8203896;28;20145;-62
2024/01/20 12:00:56;;;;;;;18.55;9.40;;;;;;;;;;8209436;28;20877;-62
2024/01/20 12:04:58;;;;;;;19.13;10.52;;;;;;;;;;8205783;28;20402;-62
2024/01/20 12:08:58;;;;;;;18.20;9.35;;;;;;;;;;8207142;28;20040;-63
2024/01/20 12:13:04;;;;;;;17.77;10.30;;;;;;;;;;8206078;28;20338;-64
2024/01/20 12:17:04;;;;;;;25.08;12.13;;;;;;;;;;8211099;28;20041;-64
2024/01/20 12:21:05;;;;;;;20.23;10.48;;;;;;;;;;8210732;28;20033;-63
2024/01/20 12:25:06;;;;;;;20.15;11.38;;;;;;;;;;8211643;28;20014;-63
2024/01/20 12:29:06;;;;;;;23.52;11.95;;;;;;;;;;8207925;28;20518;-61
2024/01/20 12:33:06;;;;;;;25.52;12.27;;;;;;;;;;8209122;28;20034;-61
2024/01/20 12:37:07;;;;;;;20.17;10.98;;;;;;;;;;8203613;28;20633;-61
2024/01/20 12:41:07;;;;;;;23.90;12.15;;;;;;;;;;8208014;28;20108;-61
2024/01/20 12:45:08;;;;;;;17.80;10.70;;;;;;;;;;8205367;28;20468;-61
2024/01/20 12:49:08;;;;;;;20.55;10.52;;;;;;;;;;8205151;28;20045;-63
2024/01/20 12:53:08;;;;;;;17.50;11.48;;;;;;;;;;8204663;28;20233;-63
2024/01/20 12:57:09;;;;;;;29.65;16.42;;;;;;;;;;8203302;28;20026;-62
2024/01/20 13:01:09;;;;;;;24.95;15.23;;;;;;;;;;8206784;28;20468;-61
2024/01/20 13:05:09;;;;;;;33.20;19.27;;;;;;;;;;8201321;28;20232;-61
2024/01/20 13:09:10;;;;;;;29.90;18.02;;;;;;;;;;8194249;28;20144;-61
2024/01/20 13:13:10;;;;;;;24.65;15.27;;;;;;;;;;8200966;28;20668;-61
2024/01/20 13:17:10;;;;;;;39.88;18.65;;;;;;;;;;8202770;28;20658;-61
2024/01/20 13:21:11;;;;;;;29.90;16.80;;;;;;;;;;8198156;28;20026;-61
2024/01/20 13:25:12;;;;;;;25.45;14.82;;;;;;;;;;8195672;28;20178;-61
2024/01/20 13:29:12;;;;;;;22.85;14.30;;;;;;;;;;8203134;28;20423;-61
2024/01/20 13:33:12;;;;;;;26.87;15.37;;;;;;;;;;8201391;28;20389;-60
2024/01/20 13:37:12;;;;;;;25.17;13.85;;;;;;;;;;8200136;28;20680;-60
2024/01/20 13:41:12;;;;;;;26.52;15.43;;;;;;;;;;8212945;28;20463;-61
2024/01/20 13:45:13;;;;;;;24.35;14.00;;;;;;;;;;8214047;28;20034;-62
2024/01/20 13:49:13;;;;;;;20.98;12.77;;;;;;;;;;8207716;28;20027;-62
2024/01/20 13:53:13;;;;;;;21.65;13.15;;;;;;;;;;8208903;28;20474;-62
2024/01/20 13:57:13;;;;;;;23.45;14.65;;;;;;;;;;8210263;28;20027;-62
2024/01/20 14:01:14;;;;;;;26.10;14.68;;;;;;;;;;8207602;28;20711;-62
2024/01/20 14:05:14;;;;;;;25.08;14.55;;;;;;;;;;8205769;28;20438;-62
2024/01/20 14:09:14;;;;;;;22.38;13.82;;;;;;;;;;8205484;28;20047;-62
2024/01/20 14:13:14;;;;;;;39.05;18.90;;;;;;;;;;8209312;28;20048;-61
2024/01/20 14:17:14;;;;;;;41.20;19.90;;;;;;;;;;8207250;28;20341;-63
2024/01/20 14:21:15;;;;;;;43.28;20.83;;;;;;;;;;8208286;28;20068;-62
2024/01/20 14:25:16;;;;;;;41.78;20.67;;;;;;;;;;8206618;28;20986;-62
2024/01/20 14:29:16;;;;;;;42.33;20.77;;;;;;;;;;8206360;28;20562;-62
2024/01/20 14:33:17;;;;;;;54.20;25.17;;;;;;;;;;8202509;28;20176;-63
2024/01/20 14:37:17;;;;;;;40.15;20.95;;;;;;;;;;8206246;28;20065;-63
2024/01/20 14:41:18;;;;;;;30.73;17.13;;;;;;;;;;8201846;28;20030;-63
2024/01/20 14:45:18;;;;;;;28.45;16.58;;;;;;;;;;8207131;28;20026;-62
2024/01/20 14:49:18;;;;;;;32.33;16.83;;;;;;;;;;8205166;28;20010;-62
2024/01/20 14:53:19;;;;;;;26.55;14.75;;;;;;;;;;8208839;28;20652;-62
2024/01/20 14:57:19;;;;;;;23.35;15.20;;;;;;;;;;8205738;28;20121;-63
2024/01/20 15:01:20;;;;;;;24.70;14.82;;;;;;;;;;8209402;28;20418;-62
2024/01/20 15:05:21;;;;;;;27.02;15.02;;;;;;;;;;8200853;28;20026;-62
2024/01/20 15:09:21;;;;;;;26.02;15.10;;;;;;;;;;8197535;28;20022;-61
2024/01/20 15:13:21;;;;;;;24.02;15.07;;;;;;;;;;8206481;28;20088;-61
2024/01/20 15:17:21;;;;;;;27.90;13.63;;;;;;;;;;8201744;28;20464;-62
2024/01/20 15:21:21;;;;;;;29.13;16.92;;;;;;;;;;8204833;28;20281;-62
2024/01/20 15:25:22;;;;;;;25.80;14.88;;;;;;;;;;8208121;28;20018;-62
2024/01/20 15:29:22;;;;;;;29.88;16.98;;;;;;;;;;8207964;28;20048;-62
2024/01/20 15:33:22;;;;;;;27.45;16.95;;;;;;;;;;8205076;28;20046;-61
2024/01/20 15:37:22;;;;;;;27.70;16.33;;;;;;;;;;8204171;28;20022;-62
2024/01/20 15:41:22;;;;;;;30.08;18.33;;;;;;;;;;8201997;28;20314;-62
2024/01/20 15:45:23;;;;;;;44.08;15.95;;;;;;;;;;8204378;28;20120;-62
2024/01/20 15:49:23;;;;;;;31.47;17.27;;;;;;;;;;8201627;28;20581;-63
2024/01/20 15:53:23;;;;;;;32.92;18.48;;;;;;;;;;8205151;28;20276;-63
2024/01/20 15:57:23;;;;;;;29.90;17.67;;;;;;;;;;8205062;28;20498;-62
2024/01/20 16:01:23;;;;;;;30.65;17.17;;;;;;;;;;8204060;28;20480;-63
2024/01/20 16:05:24;;;;;;;25.33;15.03;;;;;;;;;;8198843;28;20018;-63
2024/01/20 16:09:24;;;;;;;25.30;14.77;;;;;;;;;;8200652;28;20366;-62
2024/01/20 16:13:24;;;;;;;24.15;15.35;;;;;;;;;;8205482;28;20045;-62
2024/01/20 16:17:24;;;;;;;28.17;16.05;;;;;;;;;;8203119;28;20041;-63
2024/01/20 16:21:24;;;;;;;27.17;14.98;;;;;;;;;;8204480;28;21003;-61
2024/01/20 16:25:25;;;;;;;26.15;14.52;;;;;;;;;;8206481;28;20026;-61
2024/01/20 16:29:25;;;;;;;24.08;13.90;;;;;;;;;;8205232;28;20028;-61
2024/01/20 16:33:25;;;;;;;22.85;13.10;;;;;;;;;;8206691;28;20281;-63
2024/01/20 16:37:26;;;;;;;25.85;15.23;;;;;;;;;;8204981;28;20046;-62
2024/01/20 16:41:26;;;;;;;26.73;15.80;;;;;;;;;;8203864;28;20018;-63
2024/01/20 16:45:26;;;;;;;28.67;17.05;;;;;;;;;;8204485;28;20489;-63
2024/01/20 16:49:26;;;;;;;30.48;16.10;;;;;;;;;;8203872;28;20026;-63
2024/01/20 16:53:27;;;;;;;28.48;16.27;;;;;;;;;;8202491;28;20103;-62
2024/01/20 16:57:27;;;;;;;31.73;17.20;;;;;;;;;;8208025;28;20034;-62
2024/01/20 17:01:27;;;;;;;40.72;22.33;;;;;;;;;;8202961;28;20762;-62
2024/01/20 17:05:28;;;;;;;32.95;17.48;;;;;;;;;;8203004;28;20084;-62
2024/01/20 17:09:28;;;;;;;30.33;17.13;;;;;;;;;;8199733;28;20137;-62
2024/01/20 17:13:29;;;;;;;28.60;15.93;;;;;;;;;;8208084;28;20148;-63
2024/01/20 17:17:29;;;;;;;30.25;17.08;;;;;;;;;;8215438;28;20306;-62
2024/01/20 17:21:29;;;;;;;34.85;19.75;;;;;;;;;;8209854;28;20034;-63
2024/01/20 17:25:29;;;;;;;67.35;29.52;;;;;;;;;;8222556;28;20023;-63
2024/01/20 17:29:29;;;;;;;40.38;20.67;;;;;;;;;;8217722;28;20023;-62
2024/01/20 17:33:30;;;;;;;49.33;24.42;;;;;;;;;;8217110;28;20173;-63
2024/01/20 17:37:30;;;;;;;42.05;23.80;;;;;;;;;;8219228;28;20516;-63
2024/01/20 17:41:30;;;;;;;40.47;21.13;;;;;;;;;;8217317;28;20080;-62
2024/01/20 17:45:30;;;;;;;34.53;18.58;;;;;;;;;;8218063;28;20072;-63
2024/01/20 17:49:30;;;;;;;33.33;18.15;;;;;;;;;;8217320;28;20119;-63
2024/01/20 17:53:33;;;;;;;35.22;19.75;;;;;;;;;;8219101;28;20572;-63
2024/01/20 17:57:33;;;;;;;37.58;21.60;;;;;;;;;;8218147;28;20029;-63
2024/01/20 18:01:33;;;;;;;31.92;18.23;;;;;;;;;;8216596;28;20049;-63
2024/01/20 18:05:34;;;;;;;34.65;17.75;;;;;;;;;;8221784;28;20556;-63
2024/01/20 18:09:34;;;;;;;35.65;20.52;;;;;;;;;;8214157;28;20129;-63
2024/01/20 18:13:34;;;;;;;38.63;21.03;;;;;;;;;;8214140;28;20415;-64
2024/01/20 18:17:34;;;;;;;35.42;19.52;;;;;;;;;;8219837;28;21216;-63
2024/01/20 18:21:34;;;;;;;35.05;18.65;;;;;;;;;;8219207;28;20348;-62
2024/01/20 18:25:35;;;;;;;35.00;20.67;;;;;;;;;;8219859;28;20029;-63
2024/01/20 18:29:35;;;;;;;36.03;20.30;;;;;;;;;;8216467;28;20641;-63
2024/01/20 18:33:36;;;;;;;34.78;19.13;;;;;;;;;;8214563;28;20744;-63
2024/01/20 18:37:37;;;;;;;29.40;17.10;;;;;;;;;;8219460;28;20311;-63
2024/01/20 18:41:38;;;;;;;24.77;15.25;;;;;;;;;;8217278;28;20296;-62
2024/01/20 18:45:38;;;;;;;26.55;15.15;;;;;;;;;;8216212;28;20115;-62
2024/01/20 18:49:38;;;;;;;22.63;13.95;;;;;;;;;;8211298;28;20025;-62
2024/01/20 18:53:38;;;;;;;25.80;14.90;;;;;;;;;;8216414;28;20072;-63
2024/01/20 18:57:38;;;;;;;27.80;14.82;;;;;;;;;;8214336;28;20026;-63
2024/01/20 19:01:39;;;;;;;24.65;13.55;;;;;;;;;;8216351;28;20234;-62
2024/01/20 19:05:39;;;;;;;24.15;12.95;;;;;;;;;;8210563;28;20088;-63
2024/01/20 19:09:40;;;;;;;28.73;16.45;;;;;;;;;;8215795;28;20500;-63
2024/01/20 19:13:40;;;;;;;23.35;13.02;;;;;;;;;;8219595;28;20183;-63
2024/01/20 19:17:40;;;;;;;24.23;14.35;;;;;;;;;;8212249;28;20048;-63
2024/01/20 19:21:41;;;;;;;29.05;15.88;;;;;;;;;;8209061;28;20782;-63
2024/01/20 19:25:42;;;;;;;25.08;14.15;;;;;;;;;;8209479;28;20514;-63
2024/01/20 19:29:43;;;;;;;23.17;13.57;;;;;;;;;;8210328;28;21031;-63
2024/01/20 19:33:45;;;;;;;22.88;14.02;;;;;;;;;;8212691;28;20277;-62
2024/01/20 19:37:45;;;;;;;25.50;14.27;;;;;;;;;;8203361;28;20029;-63
2024/01/20 19:41:45;;;;;;;30.05;16.15;;;;;;;;;;8205112;28;20080;-63
2024/01/20 19:45:45;;;;;;;26.45;15.68;;;;;;;;;;8204106;28;20366;-63
2024/01/20 19:49:47;;;;;;;29.75;15.98;;;;;;;;;;8203094;28;20483;-63
2024/01/20 19:53:47;;;;;;;39.83;19.48;;;;;;;;;;8208062;28;20037;-63
2024/01/20 19:57:47;;;;;;;31.02;17.45;;;;;;;;;;8203549;28;20022;-63
2024/01/20 20:01:48;;;;;;;31.15;15.90;;;;;;;;;;8204561;28;20143;-63
2024/01/20 20:05:48;;;;;;;27.50;15.85;;;;;;;;;;8204524;28;20519;-63
2024/01/20 20:09:48;;;;;;;28.20;16.13;;;;;;;;;;8203740;28;20028;-63
2024/01/20 20:13:49;;;;;;;25.70;14.77;;;;;;;;;;8207965;28;20579;-63
2024/01/20 20:17:50;;;;;;;29.55;16.73;;;;;;;;;;8205622;28;20042;-64
2024/01/20 20:21:52;;;;;;;28.67;16.50;;;;;;;;;;8204810;28;20030;-63
2024/01/20 20:25:52;;;;;;;28.70;15.27;;;;;;;;;;8203643;28;20551;-63
2024/01/20 20:29:52;;;;;;;26.42;14.40;;;;;;;;;;8201408;28;20509;-63
2024/01/20 20:33:52;;;;;;;28.88;14.23;;;;;;;;;;8205475;28;20425;-63
2024/01/20 20:37:55;;;;;;;23.00;13.25;;;;;;;;;;8206585;28;20369;-63
2024/01/20 20:41:56;;;;;;;23.70;13.45;;;;;;;;;;8202705;28;20488;-63
2024/01/20 20:45:56;;;;;;;24.73;13.27;;;;;;;;;;8207039;28;20974;-63
2024/01/20 20:49:56;;;;;;;27.08;13.30;;;;;;;;;;8198155;28;21370;-63
2024/01/20 20:53:56;;;;;;;20.50;11.05;;;;;;;;;;8203388;28;20579;-63
2024/01/20 20:57:57;;;;;;;9.00;6.40;;;;;;;;;;8201061;28;20710;-62
2024/01/20 21:01:57;;;;;;;10.02;6.55;;;;;;;;;;8204565;28;20479;-62
2024/01/20 21:05:57;;;;;;;7.20;5.55;;;;;;;;;;8202950;28;20315;-62
2024/01/20 21:09:59;;;;;;;7.93;5.93;;;;;;;;;;8205969;28;20325;-62
2024/01/20 21:13:59;;;;;;;8.57;6.72;;;;;;;;;;8202751;28;20070;-63
2024/01/20 21:17:59;;;;;;;13.43;7.95;;;;;;;;;;8207454;28;20246;-63
2024/01/20 21:21:59;;;;;;;235.75;17.25;;;;;;;;;;8207011;28;20220;-64
2024/01/20 21:26:00;;;;;;;374.52;21.77;;;;;;;;;;8203620;28;20546;-64
2024/01/20 21:30:00;;;;;;;170.55;11.30;;;;;;;;;;8201803;28;20539;-63
2024/01/20 21:34:00;;;;;;;9.15;6.03;;;;;;;;;;8207368;28;20358;-62
2024/01/20 21:38:00;;;;;;;22.35;7.47;;;;;;;;;;8205125;28;20056;-63
2024/01/20 21:42:01;;;;;;;11.65;8.40;;;;;;;;;;8207161;28;20451;-63
2024/01/20 21:46:01;;;;;;;13.15;8.50;;;;;;;;;;8208643;28;20038;-61
2024/01/20 21:50:02;;;;;;;15.15;10.55;;;;;;;;;;8199985;28;20026;-61
2024/01/20 21:54:03;;;;;;;21.23;12.45;;;;;;;;;;8205664;28;20034;-61
2024/01/20 21:58:03;;;;;;;20.07;12.70;;;;;;;;;;8209104;28;21014;-61
2024/01/20 22:02:04;;;;;;;24.50;15.25;;;;;;;;;;8207642;28;20324;-62
2024/01/20 22:06:04;;;;;;;31.48;17.25;;;;;;;;;;8210818;28;20042;-63
2024/01/20 22:10:05;;;;;;;24.40;14.75;;;;;;;;;;8205300;28;20498;-63
2024/01/20 22:14:05;;;;;;;27.92;15.23;;;;;;;;;;8210165;28;20076;-63
2024/01/20 22:18:05;;;;;;;26.75;15.10;;;;;;;;;;8210582;28;20030;-63
2024/01/20 22:22:05;;;;;;;23.58;14.00;;;;;;;;;;8209268;28;20018;-63
2024/01/20 22:26:09;;;;;;;22.58;13.50;;;;;;;;;;8212390;28;20099;-63
2024/01/20 22:30:09;;;;;;;20.37;12.50;;;;;;;;;;8216178;28;20018;-63
2024/01/20 22:34:11;;;;;;;23.65;11.98;;;;;;;;;;8220849;28;20037;-63
2024/01/20 22:38:11;;;;;;;23.60;12.90;;;;;;;;;;8213724;28;20301;-62
2024/01/20 22:42:11;;;;;;;22.30;12.40;;;;;;;;;;8208643;28;20403;-63
2024/01/20 22:46:17;;;;;;;21.70;11.90;;;;;;;;;;8215896;28;20161;-62
2024/01/20 22:50:18;;;;;;;23.60;11.90;;;;;;;;;;8211487;28;20030;-62
2024/01/20 22:54:22;;;;;;;22.00;12.27;;;;;;;;;;8212568;28;20247;-62
2024/01/20 22:58:22;;;;;;;23.65;11.68;;;;;;;;;;8214577;28;20029;-61
2024/01/20 23:02:22;;;;;;;20.95;12.20;;;;;;;;;;8218670;28;20095;-61
2024/01/20 23:06:23;;;;;;;22.17;11.77;;;;;;;;;;8218524;28;20022;-61
2024/01/20 23:10:23;;;;;;;23.90;12.15;;;;;;;;;;8211777;28;20208;-61
2024/01/20 23:14:24;;;;;;;23.15;13.20;;;;;;;;;;8215888;28;20566;-62
2024/01/20 23:18:24;;;;;;;20.73;12.35;;;;;;;;;;8216676;28;20593;-62
2024/01/20 23:22:24;;;;;;;23.20;12.40;;;;;;;;;;8209942;28;20033;-62
2024/01/20 23:26:24;;;;;;;21.50;12.45;;;;;;;;;;8219174;28;20470;-61
2024/01/20 23:30:29;;;;;;;25.08;13.57;;;;;;;;;;8214395;28;22940;-61
2024/01/20 23:34:32;;;;;;;26.05;13.45;;;;;;;;;;8217565;28;20033;-61
2024/01/20 23:38:32;;;;;;;24.02;12.13;;;;;;;;;;8215396;28;20041;-62